sensor_id;sensor_type;location;lat;lon;timestamp;pressure;altitude;pressure_sealevel;temperature;humidity
22605;BME280;11469;49.024;8.246;2023-05-20T00:01:52;100554.25;;;15.14;60.90
22605;BME280;11469;49.024;8.246;2023-05-20T00:04:17;100561.19;;;15.20;60.67
22605;BME280;11469;49.024;8.246;2023-05-20T00:06:43;100560.34;;;15.20;60.75
22605;BME280;11469;49.024;8.246;2023-05-20T00:09:08;100563.16;;;15.16;60.98
22605;BME280;11469;49.024;8.246;2023-05-20T00:11:34;100566.75;;;15.10;61.76
22605;BME280;11469;49.024;8.246;2023-05-20T00:13:59;100557.06;;;15.14;61.46
22605;BME280;11469;49.024;8.246;2023-05-20T00:16:24;100556.28;;;15.14;61.25
22605;BME280;11469;49.024;8.246;2023-05-20T00:18:50;100556.66;;;15.09;62.01
22605;BME280;11469;49.024;8.246;2023-05-20T00:21:15;100553.34;;;15.00;61.67
22605;BME280;11469;49.024;8.246;2023-05-20T00:23:41;100559.38;;;14.98;62.07
22605;BME280;11469;49.024;8.246;2023-05-20T00:26:06;100561.38;;;14.98;62.28
22605;BME280;11469;49.024;8.246;2023-05-20T00:28:31;100546.44;;;14.97;62.37
22605;BME280;11469;49.024;8.246;2023-05-20T00:30:57;100557.75;;;14.97;62.63
22605;BME280;11469;49.024;8.246;2023-05-20T00:33:22;100553.28;;;14.96;62.98
22605;BME280;11469;49.024;8.246;2023-05-20T00:35:47;100554.50;;;14.95;62.89
22605;BME280;11469;49.024;8.246;2023-05-20T00:38:13;100554.88;;;14.93;62.93
22605;BME280;11469;49.024;8.246;2023-05-20T00:40:38;100547.19;;;14.90;62.83
22605;BME280;11469;49.024;8.246;2023-05-20T00:43:03;100552.06;;;14.93;63.05
22605;BME280;11469;49.024;8.246;2023-05-20T00:45:30;100545.19;;;14.91;63.13
22605;BME280;11469;49.024;8.246;2023-05-20T00:47:56;100543.94;;;14.88;63.18
22605;BME280;11469;49.024;8.246;2023-05-20T00:50:23;100541.50;;;14.87;63.29
22605;BME280;11469;49.024;8.246;2023-05-20T00:52:49;100544.72;;;14.85;63.65
22605;BME280;11469;49.024;8.246;2023-05-20T00:55:15;100540.28;;;14.84;63.59
22605;BME280;11469;49.024;8.246;2023-05-20T00:57:41;100547.06;;;14.80;63.42
22605;BME280;11469;49.024;8.246;2023-05-20T01:00:08;100553.13;;;14.82;64.06
22605;BME280;11469;49.024;8.246;2023-05-20T01:02:34;100545.41;;;14.75;63.91
22605;BME280;11469;49.024;8.246;2023-05-20T01:04:59;100543.34;;;14.72;64.41
22605;BME280;11469;49.024;8.246;2023-05-20T01:07:25;100548.19;;;14.72;64.51
22605;BME280;11469;49.024;8.246;2023-05-20T01:09:51;100548.19;;;14.72;64.37
22605;BME280;11469;49.024;8.246;2023-05-20T01:12:41;100542.13;;;14.70;64.72
22605;BME280;11469;49.024;8.246;2023-05-20T01:15:09;100543.75;;;14.71;64.84
22605;BME280;11469;49.024;8.246;2023-05-20T01:17:44;100543.69;;;14.67;65.25
22605;BME280;11469;49.024;8.246;2023-05-20T01:20:12;100537.63;;;14.65;65.36
22605;BME280;11469;49.024;8.246;2023-05-20T01:22:55;100539.25;;;14.63;65.36
22605;BME280;11469;49.024;8.246;2023-05-20T01:25:21;100536.00;;;14.60;65.89
22605;BME280;11469;49.024;8.246;2023-05-20T01:27:47;100543.66;;;14.60;65.66
22605;BME280;11469;49.024;8.246;2023-05-20T01:30:13;100537.97;;;14.56;65.79
22605;BME280;11469;49.024;8.246;2023-05-20T01:32:57;100541.22;;;14.58;66.20
22605;BME280;11469;49.024;8.246;2023-05-20T01:35:24;100539.97;;;14.56;66.22
22605;BME280;11469;49.024;8.246;2023-05-20T01:37:51;100540.78;;;14.56;66.51
22605;BME280;11469;49.024;8.246;2023-05-20T01:40:17;100544.75;;;14.52;66.52
22605;BME280;11469;49.024;8.246;2023-05-20T01:42:43;100543.13;;;14.51;66.88
22605;BME280;11469;49.024;8.246;2023-05-20T01:45:10;100547.97;;;14.50;67.18
22605;BME280;11469;49.024;8.246;2023-05-20T01:47:36;100543.88;;;14.44;67.20
22605;BME280;11469;49.024;8.246;2023-05-20T01:50:01;100539.50;;;14.50;67.15
22605;BME280;11469;49.024;8.246;2023-05-20T01:52:27;100539.00;;;14.41;67.74
22605;BME280;11469;49.024;8.246;2023-05-20T01:54:53;100534.97;;;14.42;67.97
22605;BME280;11469;49.024;8.246;2023-05-20T01:57:22;100536.91;;;14.38;68.53
22605;BME280;11469;49.024;8.246;2023-05-20T01:59:48;100530.41;;;14.34;68.28
22605;BME280;11469;49.024;8.246;2023-05-20T02:02:14;100536.78;;;14.27;68.75
22605;BME280;11469;49.024;8.246;2023-05-20T02:04:42;100523.44;;;14.24;69.72
22605;BME280;11469;49.024;8.246;2023-05-20T02:07:08;100525.41;;;14.20;69.58
22605;BME280;11469;49.024;8.246;2023-05-20T02:09:33;100523.28;;;14.10;70.39
22605;BME280;11469;49.024;8.246;2023-05-20T02:11:58;100522.09;;;14.11;70.63
22605;BME280;11469;49.024;8.246;2023-05-20T02:14:24;100526.47;;;14.09;70.95
22605;BME280;11469;49.024;8.246;2023-05-20T02:16:49;100525.19;;;14.03;70.80
22605;BME280;11469;49.024;8.246;2023-05-20T02:19:15;100519.06;;;13.97;70.85
22605;BME280;11469;49.024;8.246;2023-05-20T02:21:47;100525.13;;;13.99;71.24
22605;BME280;11469;49.024;8.246;2023-05-20T02:24:13;100526.66;;;13.93;71.05
22605;BME280;11469;49.024;8.246;2023-05-20T02:26:38;100519.78;;;13.90;71.13
22605;BME280;11469;49.024;8.246;2023-05-20T02:29:03;100511.28;;;13.87;71.18
22605;BME280;11469;49.024;8.246;2023-05-20T02:31:29;100512.84;;;13.84;71.62
22605;BME280;11469;49.024;8.246;2023-05-20T02:33:54;100508.25;;;13.73;71.91
22605;BME280;11469;49.024;8.246;2023-05-20T02:36:20;100506.25;;;13.73;71.55
22605;BME280;11469;49.024;8.246;2023-05-20T02:38:45;100505.75;;;13.64;71.95
22605;BME280;11469;49.024;8.246;2023-05-20T02:41:10;100496.38;;;13.56;72.13
22605;BME280;11469;49.024;8.246;2023-05-20T02:43:36;100497.91;;;13.50;72.61
22605;BME280;11469;49.024;8.246;2023-05-20T02:46:02;100489.44;;;13.50;72.79
22605;BME280;11469;49.024;8.246;2023-05-20T02:48:27;100486.91;;;13.42;72.64
22605;BME280;11469;49.024;8.246;2023-05-20T02:50:53;100483.75;;;13.47;72.85
22605;BME280;11469;49.024;8.246;2023-05-20T02:53:18;100486.53;;;13.43;73.23
22605;BME280;11469;49.024;8.246;2023-05-20T02:55:45;100495.22;;;13.35;73.13
22605;BME280;11469;49.024;8.246;2023-05-20T02:58:13;100485.41;;;13.25;73.54
22605;BME280;11469;49.024;8.246;2023-05-20T03:00:39;100491.03;;;13.21;73.75
22605;BME280;11469;49.024;8.246;2023-05-20T03:03:08;100495.69;;;13.14;74.18
22605;BME280;11469;49.024;8.246;2023-05-20T03:05:37;100486.69;;;13.05;74.21
22605;BME280;11469;49.024;8.246;2023-05-20T03:08:09;100489.44;;;13.01;74.81
22605;BME280;11469;49.024;8.246;2023-05-20T03:10:37;100498.25;;;13.00;75.00
22605;BME280;11469;49.024;8.246;2023-05-20T03:13:04;100500.19;;;12.95;74.88
22605;BME280;11469;49.024;8.246;2023-05-20T03:15:35;100498.63;;;12.98;75.22
22605;BME280;11469;49.024;8.246;2023-05-20T03:18:01;100502.19;;;12.95;75.07
22605;BME280;11469;49.024;8.246;2023-05-20T03:20:26;100505.75;;;12.92;75.33
22605;BME280;11469;49.024;8.246;2023-05-20T03:22:53;100498.38;;;12.84;75.64
22605;BME280;11469;49.024;8.246;2023-05-20T03:25:19;100507.19;;;12.82;75.69
22605;BME280;11469;49.024;8.246;2023-05-20T03:27:45;100501.56;;;12.82;75.95
22605;BME280;11469;49.024;8.246;2023-05-20T03:30:10;100505.56;;;12.81;75.99
22605;BME280;11469;49.024;8.246;2023-05-20T03:32:36;100505.38;;;12.71;76.21
22605;BME280;11469;49.024;8.246;2023-05-20T03:35:02;100500.50;;;12.68;76.41
22605;BME280;11469;49.024;8.246;2023-05-20T03:37:27;100502.06;;;12.65;76.62
22605;BME280;11469;49.024;8.246;2023-05-20T03:39:52;100505.13;;;12.56;77.28
22605;BME280;11469;49.024;8.246;2023-05-20T03:42:18;100509.94;;;12.56;77.36
22605;BME280;11469;49.024;8.246;2023-05-20T03:44:43;100514.06;;;12.62;77.43
22605;BME280;11469;49.024;8.246;2023-05-20T03:47:08;100510.66;;;12.53;77.71
22605;BME280;11469;49.024;8.246;2023-05-20T03:49:34;100513.78;;;12.48;78.08
22605;BME280;11469;49.024;8.246;2023-05-20T03:52:00;100511.41;;;12.50;78.36
22605;BME280;11469;49.024;8.246;2023-05-20T03:54:25;100504.47;;;12.44;78.46
22605;BME280;11469;49.024;8.246;2023-05-20T03:56:52;100513.72;;;12.44;78.47
22605;BME280;11469;49.024;8.246;2023-05-20T03:59:18;100506.00;;;12.41;78.92
22605;BME280;11469;49.024;8.246;2023-05-20T04:01:43;100511.56;;;12.38;79.29
22605;BME280;11469;49.024;8.246;2023-05-20T04:04:08;100519.19;;;12.37;79.51
22605;BME280;11469;49.024;8.246;2023-05-20T04:06:34;100525.47;;;12.30;79.42
22605;BME280;11469;49.024;8.246;2023-05-20T04:09:00;100521.94;;;12.34;79.89
22605;BME280;11469;49.024;8.246;2023-05-20T04:11:25;100522.38;;;12.36;79.83
22605;BME280;11469;49.024;8.246;2023-05-20T04:13:50;100521.56;;;12.35;79.63
22605;BME280;11469;49.024;8.246;2023-05-20T04:16:16;100527.69;;;12.41;79.87
22605;BME280;11469;49.024;8.246;2023-05-20T04:18:41;100526.06;;;12.40;79.83
22605;BME280;11469;49.024;8.246;2023-05-20T04:21:10;100523.69;;;12.42;79.77
22605;BME280;11469;49.024;8.246;2023-05-20T04:23:35;100522.06;;;12.41;79.96
22605;BME280;11469;49.024;8.246;2023-05-20T04:26:01;100520.88;;;12.42;79.96
22605;BME280;11469;49.024;8.246;2023-05-20T04:28:27;100515.25;;;12.42;80.36
22605;BME280;11469;49.024;8.246;2023-05-20T04:31:01;100518.06;;;12.42;80.25
22605;BME280;11469;49.024;8.246;2023-05-20T04:33:32;100523.69;;;12.42;80.72
22605;BME280;11469;49.024;8.246;2023-05-20T04:35:57;100512.81;;;12.40;80.53
22605;BME280;11469;49.024;8.246;2023-05-20T04:38:24;100514.81;;;12.40;80.91
22605;BME280;11469;49.024;8.246;2023-05-20T04:40:59;100515.25;;;12.42;80.94
22605;BME280;11469;49.024;8.246;2023-05-20T04:43:26;100515.19;;;12.38;81.16
22605;BME280;11469;49.024;8.246;2023-05-20T04:45:56;100515.94;;;12.35;81.43
22605;BME280;11469;49.024;8.246;2023-05-20T04:48:22;100525.63;;;12.38;81.53
22605;BME280;11469;49.024;8.246;2023-05-20T04:50:48;100515.13;;;12.35;82.02
22605;BME280;11469;49.024;8.246;2023-05-20T04:53:15;100515.63;;;12.40;81.96
22605;BME280;11469;49.024;8.246;2023-05-20T04:55:40;100511.63;;;12.41;82.20
22605;BME280;11469;49.024;8.246;2023-05-20T04:58:07;100510.53;;;12.46;81.61
22605;BME280;11469;49.024;8.246;2023-05-20T05:00:39;100502.53;;;12.48;82.51
22605;BME280;11469;49.024;8.246;2023-05-20T05:03:04;100499.44;;;12.53;82.31
22605;BME280;11469;49.024;8.246;2023-05-20T05:05:30;100494.31;;;12.58;82.72
22605;BME280;11469;49.024;8.246;2023-05-20T05:07:55;100498.88;;;12.67;82.09
22605;BME280;11469;49.024;8.246;2023-05-20T05:10:21;100493.31;;;12.70;81.97
22605;BME280;11469;49.024;8.246;2023-05-20T05:12:47;100494.94;;;12.71;81.75
22605;BME280;11469;49.024;8.246;2023-05-20T05:15:12;100495.06;;;12.78;82.24
22605;BME280;11469;49.024;8.246;2023-05-20T05:17:38;100493.63;;;12.88;81.63
22605;BME280;11469;49.024;8.246;2023-05-20T05:20:03;100481.38;;;13.00;81.26
22605;BME280;11469;49.024;8.246;2023-05-20T05:22:29;100481.69;;;12.94;81.17
22605;BME280;11469;49.024;8.246;2023-05-20T05:24:54;100477.69;;;12.95;81.00
22605;BME280;11469;49.024;8.246;2023-05-20T05:27:20;100479.31;;;12.96;81.21
22605;BME280;11469;49.024;8.246;2023-05-20T05:29:46;100475.00;;;13.03;80.81
22605;BME280;11469;49.024;8.246;2023-05-20T05:32:12;100471.88;;;13.08;81.43
22605;BME280;11469;49.024;8.246;2023-05-20T05:34:37;100469.88;;;13.08;81.57
22605;BME280;11469;49.024;8.246;2023-05-20T05:37:03;100471.00;;;13.04;81.61
22605;BME280;11469;49.024;8.246;2023-05-20T05:39:28;100468.75;;;13.13;81.92
22605;BME280;11469;49.024;8.246;2023-05-20T05:41:54;100460.63;;;13.08;82.18
22605;BME280;11469;49.024;8.246;2023-05-20T05:44:20;100468.22;;;13.30;81.45
22605;BME280;11469;49.024;8.246;2023-05-20T05:46:45;100466.44;;;13.45;80.84
22605;BME280;11469;49.024;8.246;2023-05-20T05:49:10;100471.69;;;13.46;80.33
22605;BME280;11469;49.024;8.246;2023-05-20T05:51:36;100467.28;;;13.49;80.61
22605;BME280;11469;49.024;8.246;2023-05-20T05:54:01;100473.47;;;13.58;80.21
22605;BME280;11469;49.024;8.246;2023-05-20T05:56:27;100471.75;;;13.50;80.88
22605;BME280;11469;49.024;8.246;2023-05-20T05:58:52;100470.66;;;13.32;81.59
22605;BME280;11469;49.024;8.246;2023-05-20T06:01:17;100477.16;;;13.36;81.26
22605;BME280;11469;49.024;8.246;2023-05-20T06:03:43;100476.00;;;13.40;81.32
22605;BME280;11469;49.024;8.246;2023-05-20T06:06:08;100472.81;;;13.42;81.46
22605;BME280;11469;49.024;8.246;2023-05-20T06:08:34;100473.75;;;13.49;81.24
22605;BME280;11469;49.024;8.246;2023-05-20T06:10:59;100477.03;;;13.55;81.52
22605;BME280;11469;49.024;8.246;2023-05-20T06:13:24;100483.50;;;13.55;81.36
22605;BME280;11469;49.024;8.246;2023-05-20T06:15:50;100470.16;;;13.52;81.47
22605;BME280;11469;49.024;8.246;2023-05-20T06:18:15;100470.81;;;13.69;81.83
22605;BME280;11469;49.024;8.246;2023-05-20T06:20:41;100471.25;;;13.74;81.47
22605;BME280;11469;49.024;8.246;2023-05-20T06:23:06;100475.00;;;13.82;81.53
22605;BME280;11469;49.024;8.246;2023-05-20T06:25:31;100472.28;;;13.89;81.11
22605;BME280;11469;49.024;8.246;2023-05-20T06:27:57;100482.53;;;13.74;82.40
22605;BME280;11469;49.024;8.246;2023-05-20T06:30:22;100481.06;;;13.84;81.68
22605;BME280;11469;49.024;8.246;2023-05-20T06:32:47;100476.81;;;13.97;81.28
22605;BME280;11469;49.024;8.246;2023-05-20T06:35:13;100470.97;;;14.13;80.58
22605;BME280;11469;49.024;8.246;2023-05-20T06:37:38;100473.00;;;13.82;81.32
22605;BME280;11469;49.024;8.246;2023-05-20T06:40:04;100459.63;;;14.06;82.29
22605;BME280;11469;49.024;8.246;2023-05-20T06:42:30;100470.81;;;14.36;80.63
22605;BME280;11469;49.024;8.246;2023-05-20T06:44:55;100462.09;;;14.44;79.64
22605;BME280;11469;49.024;8.246;2023-05-20T06:47:21;100453.56;;;14.41;79.77
22605;BME280;11469;49.024;8.246;2023-05-20T06:49:46;100455.16;;;14.38;80.15
22605;BME280;11469;49.024;8.246;2023-05-20T06:52:11;100446.09;;;14.55;79.44
22605;BME280;11469;49.024;8.246;2023-05-20T06:54:37;100447.78;;;14.67;78.96
22605;BME280;11469;49.024;8.246;2023-05-20T06:57:08;100460.78;;;14.75;78.39
22605;BME280;11469;49.024;8.246;2023-05-20T06:59:35;100458.69;;;14.69;78.77
22605;BME280;11469;49.024;8.246;2023-05-20T07:02:01;100463.13;;;14.70;79.29
22605;BME280;11469;49.024;8.246;2023-05-20T07:04:27;100471.72;;;14.80;78.84
22605;BME280;11469;49.024;8.246;2023-05-20T07:06:52;100472.59;;;14.88;78.57
22605;BME280;11469;49.024;8.246;2023-05-20T07:09:18;100457.31;;;14.92;78.70
22605;BME280;11469;49.024;8.246;2023-05-20T07:11:43;100453.34;;;15.01;78.14
22605;BME280;11469;49.024;8.246;2023-05-20T07:14:08;100448.28;;;15.24;77.67
22605;BME280;11469;49.024;8.246;2023-05-20T07:16:34;100445.66;;;15.52;76.44
22605;BME280;11469;49.024;8.246;2023-05-20T07:19:01;100439.63;;;15.54;75.64
22605;BME280;11469;49.024;8.246;2023-05-20T07:21:26;100448.16;;;15.65;75.59
22605;BME280;11469;49.024;8.246;2023-05-20T07:23:51;100436.50;;;15.73;75.82
22605;BME280;11469;49.024;8.246;2023-05-20T07:26:17;100440.72;;;16.15;73.97
22605;BME280;11469;49.024;8.246;2023-05-20T07:28:42;100430.59;;;16.10;73.50
22605;BME280;11469;49.024;8.246;2023-05-20T07:31:09;100433.47;;;16.24;73.74
22605;BME280;11469;49.024;8.246;2023-05-20T07:33:35;100417.38;;;16.43;73.00
22605;BME280;11469;49.024;8.246;2023-05-20T07:36:00;100416.94;;;16.41;73.10
22605;BME280;11469;49.024;8.246;2023-05-20T07:38:26;100422.63;;;16.41;73.11
22605;BME280;11469;49.024;8.246;2023-05-20T07:40:51;100419.44;;;16.67;72.53
22605;BME280;11469;49.024;8.246;2023-05-20T07:43:16;100409.75;;;16.82;72.46
22605;BME280;11469;49.024;8.246;2023-05-20T07:45:42;100412.16;;;16.80;72.26
22605;BME280;11469;49.024;8.246;2023-05-20T07:48:07;100405.72;;;16.87;72.23
22605;BME280;11469;49.024;8.246;2023-05-20T07:50:33;100407.31;;;16.95;72.33
22605;BME280;11469;49.024;8.246;2023-05-20T07:52:58;100412.59;;;17.00;72.23
22605;BME280;11469;49.024;8.246;2023-05-20T07:55:24;100425.50;;;17.12;71.01
22605;BME280;11469;49.024;8.246;2023-05-20T07:57:49;100408.50;;;17.26;71.60
22605;BME280;11469;49.024;8.246;2023-05-20T08:00:15;100411.31;;;17.22;71.43
22605;BME280;11469;49.024;8.246;2023-05-20T08:02:40;100409.69;;;17.32;71.58
22605;BME280;11469;49.024;8.246;2023-05-20T08:05:06;100403.16;;;17.49;70.97
22605;BME280;11469;49.024;8.246;2023-05-20T08:07:32;100409.63;;;17.71;69.98
22605;BME280;11469;49.024;8.246;2023-05-20T08:09:58;100401.94;;;17.50;70.17
22605;BME280;11469;49.024;8.246;2023-05-20T08:12:23;100402.00;;;17.43;71.06
22605;BME280;11469;49.024;8.246;2023-05-20T08:14:49;100409.22;;;17.69;71.22
22605;BME280;11469;49.024;8.246;2023-05-20T08:17:14;100400.72;;;17.51;70.83
22605;BME280;11469;49.024;8.246;2023-05-20T08:19:39;100397.50;;;17.53;71.40
22605;BME280;11469;49.024;8.246;2023-05-20T08:22:05;100397.91;;;17.66;70.09
22605;BME280;11469;49.024;8.246;2023-05-20T08:24:31;100390.69;;;17.29;71.71
22605;BME280;11469;49.024;8.246;2023-05-20T08:26:56;100378.91;;;17.45;71.64
22605;BME280;11469;49.024;8.246;2023-05-20T08:29:22;100384.53;;;17.59;72.11
22605;BME280;11469;49.024;8.246;2023-05-20T08:31:47;100386.38;;;18.01;70.11
22605;BME280;11469;49.024;8.246;2023-05-20T08:34:13;100384.88;;;17.82;69.74
22605;BME280;11469;49.024;8.246;2023-05-20T08:36:38;100374.22;;;18.04;69.12
22605;BME280;11469;49.024;8.246;2023-05-20T08:39:04;100362.09;;;17.97;68.74
22605;BME280;11469;49.024;8.246;2023-05-20T08:41:29;100366.63;;;17.87;70.17
22605;BME280;11469;49.024;8.246;2023-05-20T08:43:56;100368.66;;;17.86;69.78
22605;BME280;11469;49.024;8.246;2023-05-20T08:46:23;100359.63;;;18.06;69.92
22605;BME280;11469;49.024;8.246;2023-05-20T08:48:49;100369.75;;;18.10;69.08
22605;BME280;11469;49.024;8.246;2023-05-20T08:51:17;100374.22;;;18.04;69.44
22605;BME280;11469;49.024;8.246;2023-05-20T08:53:45;100360.19;;;18.45;68.46
22605;BME280;11469;49.024;8.246;2023-05-20T08:56:11;100355.13;;;18.15;68.26
22605;BME280;11469;49.024;8.246;2023-05-20T08:58:37;100357.09;;;18.26;69.91
22605;BME280;11469;49.024;8.246;2023-05-20T09:01:03;100347.13;;;18.55;68.59
22605;BME280;11469;49.024;8.246;2023-05-20T09:03:29;100354.97;;;18.40;69.55
22605;BME280;11469;49.024;8.246;2023-05-20T09:06:05;100350.13;;;18.37;69.08
22605;BME280;11469;49.024;8.246;2023-05-20T09:08:31;100355.31;;;18.46;68.29
22605;BME280;11469;49.024;8.246;2023-05-20T09:10:57;100342.25;;;18.59;67.65
22605;BME280;11469;49.024;8.246;2023-05-20T09:13:23;100351.16;;;18.65;67.01
22605;BME280;11469;49.024;8.246;2023-05-20T09:15:49;100347.53;;;18.57;67.76
22605;BME280;11469;49.024;8.246;2023-05-20T09:18:14;100346.34;;;18.54;67.62
22605;BME280;11469;49.024;8.246;2023-05-20T09:20:40;100353.59;;;18.63;67.69
22605;BME280;11469;49.024;8.246;2023-05-20T09:23:07;100354.13;;;18.43;68.37
22605;BME280;11469;49.024;8.246;2023-05-20T09:25:33;100348.28;;;18.68;67.11
22605;BME280;11469;49.024;8.246;2023-05-20T09:27:59;100360.47;;;19.10;67.03
22605;BME280;11469;49.024;8.246;2023-05-20T09:30:25;100358.69;;;19.27;66.88
22605;BME280;11469;49.024;8.246;2023-05-20T09:35:20;100359.66;;;19.47;63.81
22605;BME280;11469;49.024;8.246;2023-05-20T09:37:46;100357.81;;;19.33;64.23
22605;BME280;11469;49.024;8.246;2023-05-20T09:40:14;100349.94;;;19.07;65.51
22605;BME280;11469;49.024;8.246;2023-05-20T09:42:49;100357.31;;;19.38;65.84
22605;BME280;11469;49.024;8.246;2023-05-20T09:45:15;100355.28;;;19.01;65.41
22605;BME280;11469;49.024;8.246;2023-05-20T09:47:42;100338.19;;;19.42;65.33
22605;BME280;11469;49.024;8.246;2023-05-20T09:50:08;100341.25;;;19.62;64.88
22605;BME280;11469;49.024;8.246;2023-05-20T09:52:37;100333.19;;;19.57;64.24
22605;BME280;11469;49.024;8.246;2023-05-20T09:55:04;100339.31;;;19.52;63.92
22605;BME280;11469;49.024;8.246;2023-05-20T09:57:34;100334.78;;;19.58;64.12
22605;BME280;11469;49.024;8.246;2023-05-20T10:00:00;100326.69;;;19.57;63.98
22605;BME280;11469;49.024;8.246;2023-05-20T10:02:27;100327.50;;;19.57;64.44
22605;BME280;11469;49.024;8.246;2023-05-20T10:04:53;100324.66;;;19.57;64.44
22605;BME280;11469;49.024;8.246;2023-05-20T10:21:27;100316.03;;;20.21;63.43
22605;BME280;11469;49.024;8.246;2023-05-20T10:23:52;100313.34;;;20.38;62.96
22605;BME280;11469;49.024;8.246;2023-05-20T10:26:18;100311.09;;;20.26;61.44
22605;BME280;11469;49.024;8.246;2023-05-20T10:28:45;100305.22;;;20.36;61.62
22605;BME280;11469;49.024;8.246;2023-05-20T10:31:20;100298.72;;;20.36;61.74
22605;BME280;11469;49.024;8.246;2023-05-20T10:33:46;100305.81;;;19.97;63.02
22605;BME280;11469;49.024;8.246;2023-05-20T10:36:25;100294.81;;;19.99;62.68
22605;BME280;11469;49.024;8.246;2023-05-20T10:38:58;100295.81;;;20.16;62.75
22605;BME280;11469;49.024;8.246;2023-05-20T10:41:26;100296.94;;;20.22;61.72
22605;BME280;11469;49.024;8.246;2023-05-20T10:44:04;100281.84;;;20.25;62.49
22605;BME280;11469;49.024;8.246;2023-05-20T10:46:32;100286.41;;;20.19;61.82
22605;BME280;11469;49.024;8.246;2023-05-20T10:48:58;100274.59;;;20.20;62.55
22605;BME280;11469;49.024;8.246;2023-05-20T10:51:24;100277.84;;;20.46;62.20
22605;BME280;11469;49.024;8.246;2023-05-20T10:53:54;100276.50;;;20.77;59.92
22605;BME280;11469;49.024;8.246;2023-05-20T10:56:21;100276.88;;;20.79;59.66
22605;BME280;11469;49.024;8.246;2023-05-20T10:58:47;100277.81;;;20.73;61.17
22605;BME280;11469;49.024;8.246;2023-05-20T11:01:13;100283.09;;;20.94;58.92
22605;BME280;11469;49.024;8.246;2023-05-20T11:03:42;100279.81;;;20.96;58.37
22605;BME280;11469;49.024;8.246;2023-05-20T11:06:16;100275.59;;;21.04;58.42
22605;BME280;11469;49.024;8.246;2023-05-20T11:08:42;100276.66;;;21.53;57.85
22605;BME280;11469;49.024;8.246;2023-05-20T11:11:10;100264.88;;;21.87;56.12
22605;BME280;11469;49.024;8.246;2023-05-20T11:13:35;100269.50;;;21.81;53.63
22605;BME280;11469;49.024;8.246;2023-05-20T11:16:01;100258.22;;;21.58;54.36
22605;BME280;11469;49.024;8.246;2023-05-20T11:18:27;100258.81;;;21.29;55.60
22605;BME280;11469;49.024;8.246;2023-05-20T11:20:57;100258.00;;;21.09;56.19
22605;BME280;11469;49.024;8.246;2023-05-20T11:23:22;100256.94;;;21.23;56.50
22605;BME280;11469;49.024;8.246;2023-05-20T11:25:51;100259.56;;;21.33;56.61
22605;BME280;11469;49.024;8.246;2023-05-20T11:28:19;100257.22;;;21.28;55.84
22605;BME280;11469;49.024;8.246;2023-05-20T11:30:46;100259.09;;;21.35;55.99
22605;BME280;11469;49.024;8.246;2023-05-20T11:33:13;100246.91;;;21.14;56.36
22605;BME280;11469;49.024;8.246;2023-05-20T11:35:51;100244.69;;;21.02;55.89
22605;BME280;11469;49.024;8.246;2023-05-20T11:38:17;100245.78;;;21.08;56.57
22605;BME280;11469;49.024;8.246;2023-05-20T11:40:54;100248.31;;;21.26;56.20
22605;BME280;11469;49.024;8.246;2023-05-20T11:43:20;100233.53;;;21.31;54.81
22605;BME280;11469;49.024;8.246;2023-05-20T11:45:51;100224.47;;;21.56;54.63
22605;BME280;11469;49.024;8.246;2023-05-20T11:48:17;100231.63;;;21.44;55.44
22605;BME280;11469;49.024;8.246;2023-05-20T11:50:45;100236.66;;;21.17;55.09
22605;BME280;11469;49.024;8.246;2023-05-20T11:53:16;100233.53;;;21.31;55.54
22605;BME280;11469;49.024;8.246;2023-05-20T11:58:20;100232.13;;;21.59;53.89
22605;BME280;11469;49.024;8.246;2023-05-20T12:00:46;100234.63;;;21.57;54.69
22605;BME280;11469;49.024;8.246;2023-05-20T12:03:12;100229.88;;;21.50;54.60
22605;BME280;11469;49.024;8.246;2023-05-20T12:05:38;100229.72;;;21.58;53.92
22605;BME280;11469;49.024;8.246;2023-05-20T12:08:04;100234.31;;;21.51;54.98
22605;BME280;11469;49.024;8.246;2023-05-20T12:10:30;100225.03;;;21.67;54.52
22605;BME280;11469;49.024;8.246;2023-05-20T12:12:56;100223.50;;;21.43;55.14
22605;BME280;11469;49.024;8.246;2023-05-20T12:15:21;100223.28;;;21.53;55.13
22605;BME280;11469;49.024;8.246;2023-05-20T12:17:48;100218.53;;;21.47;54.58
22605;BME280;11469;49.024;8.246;2023-05-20T12:20:15;100223.94;;;21.77;54.19
22605;BME280;11469;49.024;8.246;2023-05-20T12:22:42;100214.03;;;22.02;54.31
22605;BME280;11469;49.024;8.246;2023-05-20T12:25:11;100218.41;;;22.06;54.13
22605;BME280;11469;49.024;8.246;2023-05-20T12:27:36;100223.97;;;21.94;53.70
22605;BME280;11469;49.024;8.246;2023-05-20T12:30:02;100212.72;;;21.70;54.54
22605;BME280;11469;49.024;8.246;2023-05-20T12:32:28;100213.44;;;22.10;53.92
22605;BME280;11469;49.024;8.246;2023-05-20T12:34:54;100197.38;;;22.16;53.48
22605;BME280;11469;49.024;8.246;2023-05-20T12:37:19;100209.63;;;21.97;54.12
22605;BME280;11469;49.024;8.246;2023-05-20T12:39:44;100214.63;;;21.93;53.47
22605;BME280;11469;49.024;8.246;2023-05-20T12:42:10;100205.53;;;21.98;54.38
22605;BME280;11469;49.024;8.246;2023-05-20T12:44:36;100205.19;;;21.96;54.24
22605;BME280;11469;49.024;8.246;2023-05-20T12:47:01;100209.59;;;21.81;54.30
22605;BME280;11469;49.024;8.246;2023-05-20T12:49:26;100208.34;;;21.66;54.70
22605;BME280;11469;49.024;8.246;2023-05-20T12:51:52;100201.28;;;22.23;54.90
22605;BME280;11469;49.024;8.246;2023-05-20T12:54:18;100205.91;;;22.49;54.51
22605;BME280;11469;49.024;8.246;2023-05-20T12:56:45;100194.69;;;22.26;54.16
22605;BME280;11469;49.024;8.246;2023-05-20T12:59:12;100190.94;;;22.29;53.60
22605;BME280;11469;49.024;8.246;2023-05-20T13:01:38;100184.69;;;22.34;53.89
22605;BME280;11469;49.024;8.246;2023-05-20T13:04:04;100195.22;;;22.37;53.09
22605;BME280;11469;49.024;8.246;2023-05-20T13:06:30;100181.28;;;22.55;52.44